Time;durP1;ratioP1;P1;durP2;ratioP2;P2;SDS_P1;SDS_P2;PMS_P1;PMS_P2;Temp;Humidity;BMP_temperature;BMP_pressure;BME280_temperature;BME280_humidity;BME280_pressure;Samples;Min_cycle;Max_cycle;Signal;HPM_P1;HPM_P2
2023/08/07 00:01:12;;;;;;;;;;;15.20;99.90;;;;;;5115302;27;19998;-75
2023/08/07 00:03:38;;;;;;;;;;;15.10;99.90;;;;;;5115284;27;19956;-75
2023/08/07 00:06:04;;;;;;;;;;;15.00;99.90;;;;;;5115414;27;19929;-75
2023/08/07 00:08:31;;;;;;;;;;;15.00;99.90;;;;;;5115375;27;19931;-75
2023/08/07 00:11:09;;;;;;;;;;;15.00;99.90;;;;;;5115185;27;20362;-75
2023/08/07 00:13:35;;;;;;;;;;;15.10;99.90;;;;;;5098076;27;19957;-75
2023/08/07 00:16:01;;;;;;;;;;;15.00;99.90;;;;;;5115312;27;19920;-75
2023/08/07 00:18:27;;;;;;;;;;;15.10;99.90;;;;;;5114874;27;20329;-75
2023/08/07 00:20:53;;;;;;;;;;;15.00;99.90;;;;;;5114999;27;20002;-76
2023/08/07 00:23:18;;;;;;;;;;;15.10;99.90;;;;;;5099829;27;19998;-76
2023/08/07 00:25:44;;;;;;;;;;;15.00;99.90;;;;;;5103948;27;19919;-76
2023/08/07 00:28:09;;;;;;;;;;;15.00;99.90;;;;;;5098088;27;19979;-75
2023/08/07 00:30:35;;;;;;;;;;;15.10;99.90;;;;;;5114565;27;20294;-75
2023/08/07 00:33:00;;;;;;;;;;;15.10;99.90;;;;;;5114853;27;19915;-76
2023/08/07 00:35:26;;;;;;;;;;;15.00;99.90;;;;;;5100709;27;19956;-76
2023/08/07 00:37:52;;;;;;;;;;;15.00;99.90;;;;;;5118862;27;19922;-75
2023/08/07 00:40:17;;;;;;;;;;;14.90;99.90;;;;;;5118883;27;20644;-75
2023/08/07 00:42:43;;;;;;;;;;;14.90;99.90;;;;;;5120745;27;19960;-75
2023/08/07 00:45:08;;;;;;;;;;;14.90;99.90;;;;;;5117043;27;19919;-75
2023/08/07 00:47:34;;;;;;;;;;;14.80;99.90;;;;;;5113979;27;20290;-75
2023/08/07 00:50:01;;;;;;;;;;;14.80;99.90;;;;;;5113197;27;19919;-76
2023/08/07 00:52:27;;;;;;;;;;;14.80;99.90;;;;;;5086969;27;19920;-76
2023/08/07 00:54:53;;;;;;;;;;;14.70;99.90;;;;;;5114298;27;20351;-76
2023/08/07 00:57:22;;;;;;;;;;;14.70;99.90;;;;;;5114372;27;20003;-76
2023/08/07 00:59:48;;;;;;;;;;;14.60;99.90;;;;;;5114231;27;19926;-76
2023/08/07 01:02:14;;;;;;;;;;;14.60;99.90;;;;;;5097161;27;19919;-75
2023/08/07 01:04:40;;;;;;;;;;;14.60;99.90;;;;;;5114441;27;19923;-76
2023/08/07 01:07:06;;;;;;;;;;;14.50;99.90;;;;;;5113941;27;20385;-73
2023/08/07 01:09:32;;;;;;;;;;;14.50;99.90;;;;;;5113900;27;19998;-74
2023/08/07 01:12:17;;;;;;;;;;;14.50;99.90;;;;;;5095510;27;20428;-74
2023/08/07 01:14:58;;;;;;;;;;;14.50;99.90;;;;;;5076863;28;19958;-74
2023/08/07 01:17:24;;;;;;;;;;;14.50;99.90;;;;;;5098860;27;19915;-74
2023/08/07 01:19:51;;;;;;;;;;;14.50;99.90;;;;;;5113062;27;19923;-72
2023/08/07 01:22:17;;;;;;;;;;;14.50;99.90;;;;;;5080482;28;19916;-74
2023/08/07 01:24:44;;;;;;;;;;;14.40;99.90;;;;;;5106437;27;19942;-75
2023/08/07 01:27:19;;;;;;;;;;;14.40;99.90;;;;;;5113807;27;20189;-74
2023/08/07 01:29:56;;;;;;;;;;;14.40;99.90;;;;;;5101269;28;19923;-74
2023/08/07 01:32:26;;;;;;;;;;;14.40;99.90;;;;;;5093061;28;19963;-74
2023/08/07 01:34:52;;;;;;;;;;;14.40;99.90;;;;;;5105657;27;19922;-74
2023/08/07 01:37:18;;;;;;;;;;;14.40;99.90;;;;;;5113680;27;20324;-74
2023/08/07 01:39:45;;;;;;;;;;;14.30;99.90;;;;;;5113844;27;19971;-74
2023/08/07 01:42:11;;;;;;;;;;;14.30;99.90;;;;;;5113339;28;19915;-74
2023/08/07 01:44:37;;;;;;;;;;;14.40;99.90;;;;;;5113613;27;19965;-74
2023/08/07 01:47:03;;;;;;;;;;;14.30;99.90;;;;;;5118687;27;19923;-74
2023/08/07 01:49:29;;;;;;;;;;;14.30;99.90;;;;;;5099066;28;19994;-75
2023/08/07 01:51:54;;;;;;;;;;;14.20;99.90;;;;;;5113598;28;19919;-74
2023/08/07 01:54:20;;;;;;;;;;;14.20;99.90;;;;;;5130171;28;19926;-74
2023/08/07 01:56:45;;;;;;;;;;;14.20;99.90;;;;;;5092363;28;19926;-74
2023/08/07 01:59:11;;;;;;;;;;;14.10;99.90;;;;;;5109277;28;20061;-74
2023/08/07 02:01:36;;;;;;;;;;;14.10;99.90;;;;;;5093792;28;20270;-74
2023/08/07 02:04:02;;;;;;;;;;;14.10;99.90;;;;;;5113093;28;19964;-74
2023/08/07 02:06:28;;;;;;;;;;;14.10;99.90;;;;;;5112661;28;19926;-74
2023/08/07 02:08:53;;;;;;;;;;;14.00;99.90;;;;;;5093993;28;19950;-75
2023/08/07 02:11:19;;;;;;;;;;;14.10;99.90;;;;;;5095380;28;19923;-74
2023/08/07 02:13:44;;;;;;;;;;;14.10;99.90;;;;;;5113157;28;19939;-74
2023/08/07 02:16:10;;;;;;;;;;;14.10;99.90;;;;;;5096422;28;20021;-74
2023/08/07 02:18:35;;;;;;;;;;;14.00;99.90;;;;;;5113188;28;20286;-74
2023/08/07 02:21:01;;;;;;;;;;;14.10;99.90;;;;;;5100527;28;19922;-74
2023/08/07 02:23:28;;;;;;;;;;;14.10;99.90;;;;;;5111786;28;19947;-75
2023/08/07 02:25:54;;;;;;;;;;;14.10;99.90;;;;;;5113385;28;19994;-75
2023/08/07 02:28:20;;;;;;;;;;;14.00;99.90;;;;;;5113449;28;20010;-75
2023/08/07 02:30:48;;;;;;;;;;;14.10;99.90;;;;;;5115166;27;19940;-74
2023/08/07 02:33:14;;;;;;;;;;;14.20;99.90;;;;;;5117058;27;19980;-74
2023/08/07 02:35:39;;;;;;;;;;;14.20;99.90;;;;;;5117371;27;20365;-74
2023/08/07 02:38:05;;;;;;;;;;;14.10;99.90;;;;;;5115484;27;19919;-74
2023/08/07 02:40:31;;;;;;;;;;;14.10;99.90;;;;;;5116159;27;19922;-74
2023/08/07 02:42:56;;;;;;;;;;;14.10;99.90;;;;;;5116004;27;19919;-74
2023/08/07 02:45:22;;;;;;;;;;;14.20;99.90;;;;;;5116391;27;19983;-74
2023/08/07 02:47:47;;;;;;;;;;;14.30;99.90;;;;;;5120224;27;19918;-75
2023/08/07 02:50:13;;;;;;;;;;;14.30;99.90;;;;;;5120309;27;19920;-75
2023/08/07 02:52:38;;;;;;;;;;;14.20;99.90;;;;;;5126031;27;19914;-74
2023/08/07 02:55:04;;;;;;;;;;;14.30;99.90;;;;;;5124942;27;19923;-74
2023/08/07 02:57:30;;;;;;;;;;;14.30;99.90;;;;;;5117738;27;19923;-75
2023/08/07 02:59:55;;;;;;;;;;;14.40;99.90;;;;;;5124128;27;19915;-75
2023/08/07 03:02:21;;;;;;;;;;;14.40;99.90;;;;;;5115719;27;19930;-74
2023/08/07 03:04:47;;;;;;;;;;;14.60;99.90;;;;;;5116605;27;19918;-74
2023/08/07 03:07:12;;;;;;;;;;;14.60;99.90;;;;;;5115141;27;20316;-74
2023/08/07 03:09:38;;;;;;;;;;;14.40;99.90;;;;;;5116417;27;19923;-74
2023/08/07 03:12:04;;;;;;;;;;;14.60;99.90;;;;;;5096553;27;19959;-74
2023/08/07 03:14:30;;;;;;;;;;;14.50;99.90;;;;;;5116546;27;19920;-74
2023/08/07 03:16:55;;;;;;;;;;;14.60;99.90;;;;;;5116338;27;19923;-74
2023/08/07 03:19:21;;;;;;;;;;;14.70;99.90;;;;;;5116430;27;19915;-74
2023/08/07 03:21:47;;;;;;;;;;;14.70;99.90;;;;;;5116245;27;20053;-74
2023/08/07 03:24:12;;;;;;;;;;;14.70;99.90;;;;;;5099043;27;19919;-74
2023/08/07 03:26:38;;;;;;;;;;;14.50;99.90;;;;;;5116103;27;20679;-74
2023/08/07 03:29:03;;;;;;;;;;;14.80;99.90;;;;;;5107099;28;19919;-74
2023/08/07 03:31:29;;;;;;;;;;;14.70;99.90;;;;;;5110728;27;19977;-74
2023/08/07 03:33:55;;;;;;;;;;;14.60;99.90;;;;;;5070518;27;19980;-74
2023/08/07 03:36:20;;;;;;;;;;;14.80;99.90;;;;;;5115835;27;19915;-74
2023/08/07 03:38:46;;;;;;;;;;;14.90;99.90;;;;;;5116032;27;19922;-74
2023/08/07 03:41:11;;;;;;;;;;;14.70;99.90;;;;;;5115446;27;20281;-74
2023/08/07 03:43:37;;;;;;;;;;;14.90;99.90;;;;;;5098428;27;20013;-74
2023/08/07 03:46:02;;;;;;;;;;;14.70;99.90;;;;;;5115865;27;19916;-74
2023/08/07 03:48:28;;;;;;;;;;;14.80;99.90;;;;;;5115480;27;19930;-74
2023/08/07 03:51:01;;;;;;;;;;;14.90;99.90;;;;;;5115524;27;19919;-74
2023/08/07 03:53:26;;;;;;;;;;;14.90;99.90;;;;;;5115501;27;20382;-74
2023/08/07 03:55:52;;;;;;;;;;;14.90;99.90;;;;;;5125426;27;19967;-74
2023/08/07 03:58:17;;;;;;;;;;;15.00;99.90;;;;;;5124332;27;19972;-74
2023/08/07 04:00:43;;;;;;;;;;;15.00;99.90;;;;;;5112925;27;20386;-74
2023/08/07 04:03:08;;;;;;;;;;;15.10;99.90;;;;;;5079632;27;19925;-74
2023/08/07 04:05:34;;;;;;;;;;;15.10;99.90;;;;;;5096932;27;19915;-74
2023/08/07 04:08:00;;;;;;;;;;;15.10;99.90;;;;;;5098306;27;19991;-74
2023/08/07 04:10:25;;;;;;;;;;;15.00;99.90;;;;;;5094978;27;20332;-74
2023/08/07 04:12:51;;;;;;;;;;;15.10;99.90;;;;;;5115510;27;20033;-74
2023/08/07 04:15:16;;;;;;;;;;;15.10;99.90;;;;;;5118486;27;21155;-74
2023/08/07 04:17:42;;;;;;;;;;;15.10;99.90;;;;;;5091792;27;19915;-75
2023/08/07 04:20:08;;;;;;;;;;;15.10;99.90;;;;;;5109319;27;19960;-79
2023/08/07 04:22:33;;;;;;;;;;;15.00;99.90;;;;;;5112931;27;19922;-75
2023/08/07 04:24:59;;;;;;;;;;;15.10;99.90;;;;;;5120147;27;19992;-74
2023/08/07 04:27:26;;;;;;;;;;;15.10;99.90;;;;;;5095489;27;20242;-75
2023/08/07 04:29:51;;;;;;;;;;;15.00;99.90;;;;;;5098622;27;19930;-75
2023/08/07 04:32:17;;;;;;;;;;;14.90;99.90;;;;;;5112047;27;20278;-75
2023/08/07 04:34:43;;;;;;;;;;;14.90;99.90;;;;;;5114579;27;19919;-75
2023/08/07 04:37:08;;;;;;;;;;;14.90;99.90;;;;;;5115585;27;19923;-75
2023/08/07 04:39:35;;;;;;;;;;;14.90;99.90;;;;;;5096279;27;19998;-75
2023/08/07 04:42:01;;;;;;;;;;;14.90;99.90;;;;;;5115092;27;19959;-75
2023/08/07 04:44:26;;;;;;;;;;;14.80;99.90;;;;;;5115734;27;19963;-75
2023/08/07 04:46:52;;;;;;;;;;;14.80;99.90;;;;;;5116960;27;20285;-74
2023/08/07 04:49:17;;;;;;;;;;;14.80;99.90;;;;;;5115011;27;20027;-75
2023/08/07 04:51:43;;;;;;;;;;;14.90;99.90;;;;;;5104124;27;19919;-74
2023/08/07 04:54:09;;;;;;;;;;;14.80;99.90;;;;;;5113861;27;19919;-74
2023/08/07 04:56:34;;;;;;;;;;;15.00;99.90;;;;;;5115721;27;19919;-75
2023/08/07 04:59:01;;;;;;;;;;;15.00;99.90;;;;;;5118300;27;20414;-75
2023/08/07 05:01:27;;;;;;;;;;;15.00;99.90;;;;;;5129227;27;20367;-75
2023/08/07 05:03:52;;;;;;;;;;;15.10;99.90;;;;;;5120314;27;19921;-75
2023/08/07 05:06:19;;;;;;;;;;;15.00;99.90;;;;;;5105933;27;19915;-75
2023/08/07 05:08:44;;;;;;;;;;;15.10;99.90;;;;;;5097164;27;19934;-75
2023/08/07 05:11:10;;;;;;;;;;;15.10;99.90;;;;;;5124435;27;19927;-75
2023/08/07 05:13:35;;;;;;;;;;;15.10;99.90;;;;;;5111242;27;19922;-75
2023/08/07 05:16:01;;;;;;;;;;;15.20;99.90;;;;;;5118146;27;19915;-76
2023/08/07 05:18:26;;;;;;;;;;;15.20;99.90;;;;;;5102384;27;20374;-76
2023/08/07 05:20:52;;;;;;;;;;;15.20;99.90;;;;;;5118010;27;19954;-75
2023/08/07 05:23:18;;;;;;;;;;;15.20;99.90;;;;;;5120626;27;19941;-75
2023/08/07 05:25:47;;;;;;;;;;;15.20;99.90;;;;;;5117474;27;19919;-75
2023/08/07 05:28:12;;;;;;;;;;;15.30;99.90;;;;;;5111726;27;19919;-75
2023/08/07 05:30:38;;;;;;;;;;;15.20;99.90;;;;;;5114613;27;19919;-74
2023/08/07 05:33:03;;;;;;;;;;;15.30;99.90;;;;;;5098979;27;19915;-75
2023/08/07 05:35:29;;;;;;;;;;;15.30;99.90;;;;;;5095664;27;20430;-75
2023/08/07 05:37:55;;;;;;;;;;;15.30;99.90;;;;;;5096098;27;19925;-75
2023/08/07 05:40:20;;;;;;;;;;;15.40;99.90;;;;;;5118736;27;20006;-75
2023/08/07 05:42:46;;;;;;;;;;;15.40;99.90;;;;;;5113619;27;19926;-75
2023/08/07 05:45:12;;;;;;;;;;;15.40;99.90;;;;;;5118070;27;20273;-75
2023/08/07 05:47:37;;;;;;;;;;;15.50;99.90;;;;;;5130544;27;19915;-75
2023/08/07 05:50:03;;;;;;;;;;;15.60;99.90;;;;;;5108450;27;19974;-76
2023/08/07 05:52:28;;;;;;;;;;;15.60;99.90;;;;;;5112105;28;19915;-76
2023/08/07 05:54:54;;;;;;;;;;;15.60;99.90;;;;;;5095930;28;19920;-76
2023/08/07 05:57:20;;;;;;;;;;;15.60;99.90;;;;;;5094695;28;19919;-76
2023/08/07 05:59:45;;;;;;;;;;;15.60;99.90;;;;;;5094861;28;19923;-75
2023/08/07 06:02:11;;;;;;;;;;;15.70;99.90;;;;;;5111477;28;19920;-75
2023/08/07 06:04:37;;;;;;;;;;;15.70;99.90;;;;;;5104824;28;20252;-75
2023/08/07 06:07:04;;;;;;;;;;;15.70;99.90;;;;;;5114799;27;19916;-75
2023/08/07 06:09:30;;;;;;;;;;;15.70;99.90;;;;;;5088762;28;20358;-74
2023/08/07 06:11:55;;;;;;;;;;;15.70;99.90;;;;;;5107637;28;19915;-75
2023/08/07 06:14:21;;;;;;;;;;;15.60;99.90;;;;;;5076368;28;19920;-75
2023/08/07 06:16:46;;;;;;;;;;;15.60;99.90;;;;;;5097710;28;20010;-75
2023/08/07 06:19:12;;;;;;;;;;;15.70;99.90;;;;;;5112112;28;19927;-75
2023/08/07 06:21:37;;;;;;;;;;;15.70;99.90;;;;;;5095823;28;19916;-75
2023/08/07 06:24:03;;;;;;;;;;;15.80;99.90;;;;;;5103311;28;19916;-75
2023/08/07 06:26:29;;;;;;;;;;;15.70;99.90;;;;;;5112430;28;19922;-75
2023/08/07 06:28:54;;;;;;;;;;;15.80;99.90;;;;;;5100962;28;19961;-75
2023/08/07 06:31:20;;;;;;;;;;;15.80;99.90;;;;;;5082993;28;19928;-75
2023/08/07 06:33:45;;;;;;;;;;;15.90;99.90;;;;;;5107184;28;19920;-75
2023/08/07 06:36:11;;;;;;;;;;;16.00;99.90;;;;;;5105018;28;19927;-75
2023/08/07 06:38:36;;;;;;;;;;;16.20;99.90;;;;;;5082157;28;20393;-75
2023/08/07 06:41:02;;;;;;;;;;;16.00;99.90;;;;;;5087242;28;20026;-75
2023/08/07 06:43:28;;;;;;;;;;;15.90;99.90;;;;;;5108666;28;19970;-75
2023/08/07 06:45:54;;;;;;;;;;;15.70;99.90;;;;;;5106518;28;19955;-76
2023/08/07 06:48:20;;;;;;;;;;;15.50;99.90;;;;;;5089429;28;19924;-75
2023/08/07 06:50:49;;;;;;;;;;;15.40;99.90;;;;;;5111705;28;19949;-75
2023/08/07 06:53:14;;;;;;;;;;;15.30;99.90;;;;;;5112962;28;19927;-75
2023/08/07 06:55:43;;;;;;;;;;;15.20;99.90;;;;;;5113481;28;19972;-75
2023/08/07 06:58:09;;;;;;;;;;;15.20;99.90;;;;;;5102633;28;19969;-75
2023/08/07 07:00:35;;;;;;;;;;;15.30;99.90;;;;;;5109528;28;19920;-75
2023/08/07 07:03:01;;;;;;;;;;;15.30;99.90;;;;;;5104688;28;20402;-76
2023/08/07 07:05:27;;;;;;;;;;;15.30;99.90;;;;;;5086856;28;19916;-75
2023/08/07 07:07:52;;;;;;;;;;;15.10;99.90;;;;;;5092607;28;20020;-75
2023/08/07 07:10:18;;;;;;;;;;;14.90;99.90;;;;;;5105123;28;19972;-75
2023/08/07 07:12:43;;;;;;;;;;;14.70;99.90;;;;;;5108654;28;19920;-75
2023/08/07 07:15:09;;;;;;;;;;;14.60;99.90;;;;;;5102673;28;20017;-75
2023/08/07 07:17:35;;;;;;;;;;;14.40;99.90;;;;;;5111854;28;19927;-76
2023/08/07 07:20:00;;;;;;;;;;;14.40;99.90;;;;;;5091484;28;19931;-75
2023/08/07 07:22:26;;;;;;;;;;;14.50;99.90;;;;;;5113206;28;19915;-76
2023/08/07 07:24:51;;;;;;;;;;;14.40;99.90;;;;;;5092158;28;20378;-75
2023/08/07 07:27:17;;;;;;;;;;;14.40;99.90;;;;;;5092239;28;20020;-75
2023/08/07 07:29:43;;;;;;;;;;;14.40;99.90;;;;;;5089481;28;19923;-75
2023/08/07 07:32:08;;;;;;;;;;;14.40;99.90;;;;;;5097961;28;19969;-75
2023/08/07 07:34:34;;;;;;;;;;;14.30;99.90;;;;;;5100336;28;20299;-76
2023/08/07 07:36:59;;;;;;;;;;;14.40;99.90;;;;;;5089709;28;20012;-75
2023/08/07 07:39:25;;;;;;;;;;;14.50;99.90;;;;;;5085317;28;19919;-75
2023/08/07 07:41:50;;;;;;;;;;;14.50;99.90;;;;;;5095870;28;19931;-76
2023/08/07 07:44:16;;;;;;;;;;;14.70;99.90;;;;;;5099947;28;19927;-76
2023/08/07 07:46:41;;;;;;;;;;;14.90;99.90;;;;;;5112155;28;19919;-75
2023/08/07 07:49:07;;;;;;;;;;;15.10;99.90;;;;;;5094997;28;19927;-76
2023/08/07 07:51:35;;;;;;;;;;;15.20;99.90;;;;;;5094916;28;20329;-75
2023/08/07 07:54:00;;;;;;;;;;;15.20;99.90;;;;;;5108221;28;20272;-76
2023/08/07 07:56:26;;;;;;;;;;;15.10;99.90;;;;;;5081631;28;19969;-76
2023/08/07 07:58:51;;;;;;;;;;;15.10;99.90;;;;;;5108162;28;19915;-76
2023/08/07 08:01:18;;;;;;;;;;;14.90;99.90;;;;;;5104073;28;19923;-75
2023/08/07 08:03:43;;;;;;;;;;;14.70;99.90;;;;;;5091690;28;20359;-75
2023/08/07 08:06:11;;;;;;;;;;;14.40;99.90;;;;;;5111868;28;19927;-75
2023/08/07 08:08:36;;;;;;;;;;;14.30;99.90;;;;;;5113027;28;19926;-75
2023/08/07 08:11:02;;;;;;;;;;;14.30;99.90;;;;;;5077761;28;19919;-76
2023/08/07 08:13:27;;;;;;;;;;;14.10;99.90;;;;;;5111495;28;20006;-75
2023/08/07 08:15:53;;;;;;;;;;;14.10;99.90;;;;;;5111636;28;20313;-76
2023/08/07 08:18:18;;;;;;;;;;;14.10;99.90;;;;;;5086596;28;19968;-76
2023/08/07 08:20:44;;;;;;;;;;;14.20;99.90;;;;;;5088287;28;19926;-75
2023/08/07 08:23:09;;;;;;;;;;;14.30;99.90;;;;;;5097349;28;19919;-75
2023/08/07 08:25:35;;;;;;;;;;;14.40;99.90;;;;;;5094494;28;19920;-75
2023/08/07 08:28:01;;;;;;;;;;;14.60;99.90;;;;;;5109987;28;20036;-75
2023/08/07 08:30:26;;;;;;;;;;;14.80;99.90;;;;;;5080182;28;19920;-75
2023/08/07 08:32:52;;;;;;;;;;;15.10;99.90;;;;;;5111121;28;19973;-75
2023/08/07 08:35:17;;;;;;;;;;;15.30;99.90;;;;;;5097012;28;20001;-75
2023/08/07 08:37:43;;;;;;;;;;;15.20;99.90;;;;;;5110997;28;19916;-75
2023/08/07 08:40:17;;;;;;;;;;;15.40;99.90;;;;;;5110986;28;19930;-75
2023/08/07 08:42:43;;;;;;;;;;;15.50;99.90;;;;;;5101863;28;19916;-75
2023/08/07 08:45:11;;;;;;;;;;;15.60;99.90;;;;;;5105151;28;19922;-75
2023/08/07 08:47:37;;;;;;;;;;;15.70;1.00;;;;;;5098129;28;19941;-74
2023/08/07 08:50:06;;;;;;;;;;;16.00;99.90;;;;;;5110729;28;20002;-74
2023/08/07 08:52:34;;;;;;;;;;;16.30;99.90;;;;;;5110456;28;19923;-75
2023/08/07 08:55:00;;;;;;;;;;;16.50;99.90;;;;;;5111246;28;19980;-74
2023/08/07 08:57:26;;;;;;;;;;;16.60;1.00;;;;;;5110680;28;20320;-74
2023/08/07 08:59:52;;;;;;;;;;;16.70;1.00;;;;;;5110836;28;19935;-74
2023/08/07 09:02:18;;;;;;;;;;;16.70;99.90;;;;;;5096186;28;19920;-74
2023/08/07 09:04:44;;;;;;;;;;;16.70;99.90;;;;;;5093669;28;19915;-74
2023/08/07 09:07:13;;;;;;;;;;;16.90;1.00;;;;;;5110161;28;20010;-75
2023/08/07 09:09:40;;;;;;;;;;;17.10;1.00;;;;;;5090138;28;20286;-74
2023/08/07 09:12:08;;;;;;;;;;;17.20;99.90;;;;;;5083474;28;20388;-75
2023/08/07 09:14:35;;;;;;;;;;;17.10;99.90;;;;;;5095452;28;19919;-74
2023/08/07 09:17:01;;;;;;;;;;;16.90;99.90;;;;;;5110624;28;19919;-74
2023/08/07 09:19:27;;;;;;;;;;;16.70;99.90;;;;;;5095844;28;20002;-75
2023/08/07 09:21:53;;;;;;;;;;;17.00;92.90;;;;;;5105271;28;20003;-74
2023/08/07 09:24:21;;;;;;;;;;;17.10;27.90;;;;;;5090085;28;20367;-75
2023/08/07 09:26:47;;;;;;;;;;;17.30;1.00;;;;;;5109791;28;19938;-75
2023/08/07 09:29:13;;;;;;;;;;;17.40;1.00;;;;;;5089754;28;20407;-74
2023/08/07 09:31:42;;;;;;;;;;;17.60;1.00;;;;;;5109507;28;20509;-75
2023/08/07 09:34:08;;;;;;;;;;;17.70;1.00;;;;;;5110242;28;19915;-75
2023/08/07 09:36:34;;;;;;;;;;;17.70;1.00;;;;;;5095756;28;19964;-75
2023/08/07 09:39:03;;;;;;;;;;;18.10;10.60;;;;;;5103383;28;19920;-75
2023/08/07 09:41:29;;;;;;;;;;;17.70;1.00;;;;;;5072804;28;19963;-75
2023/08/07 09:43:55;;;;;;;;;;;17.30;1.00;;;;;;5103863;28;20406;-75
2023/08/07 09:46:21;;;;;;;;;;;17.30;3.80;;;;;;5073085;28;19924;-74
2023/08/07 09:48:47;;;;;;;;;;;17.50;1.00;;;;;;5086856;28;19945;-73
2023/08/07 09:51:13;;;;;;;;;;;17.40;99.90;;;;;;5065302;28;19973;-74
2023/08/07 09:53:39;;;;;;;;;;;17.40;99.90;;;;;;5076362;28;20353;-74
2023/08/07 09:56:05;;;;;;;;;;;17.30;99.90;;;;;;5076574;28;19998;-74
2023/08/07 09:58:31;;;;;;;;;;;16.90;99.90;;;;;;5102754;28;19980;-75
2023/08/07 10:00:59;;;;;;;;;;;16.70;1.00;;;;;;5068334;28;19917;-74
2023/08/07 10:03:28;;;;;;;;;;;16.70;1.00;;;;;;5080704;28;19969;-75
2023/08/07 10:05:54;;;;;;;;;;;16.50;53.60;;;;;;5071409;28;20351;-75
2023/08/07 10:08:21;;;;;;;;;;;16.40;27.80;;;;;;5089388;28;20000;-74
2023/08/07 10:10:46;;;;;;;;;;;16.40;99.90;;;;;;5107641;28;20390;-74
2023/08/07 10:13:13;;;;;;;;;;;16.40;99.90;;;;;;5072789;28;19955;-74
2023/08/07 10:15:40;;;;;;;;;;;16.60;99.90;;;;;;5103719;28;19916;-75
2023/08/07 10:18:05;;;;;;;;;;;16.80;99.90;;;;;;5069060;28;19921;-74
2023/08/07 10:20:31;;;;;;;;;;;16.90;99.90;;;;;;5061357;28;19926;-74
2023/08/07 10:23:08;;;;;;;;;;;16.90;99.90;;;;;;5083835;28;20067;-74
2023/08/07 10:25:35;;;;;;;;;;;17.30;99.90;;;;;;5093670;28;19920;-74
2023/08/07 10:28:01;;;;;;;;;;;17.50;58.10;;;;;;5083162;28;19916;-74
2023/08/07 10:30:27;;;;;;;;;;;17.50;1.00;;;;;;5095348;28;19973;-74
2023/08/07 10:32:53;;;;;;;;;;;17.30;1.00;;;;;;5077560;28;19916;-73
2023/08/07 10:35:33;;;;;;;;;;;16.90;39.40;;;;;;5087358;28;19935;-74
2023/08/07 10:38:11;;;;;;;;;;;16.90;99.90;;;;;;5101276;28;19923;-74
2023/08/07 10:40:55;;;;;;;;;;;17.30;90.00;;;;;;5089370;28;20371;-74
2023/08/07 10:43:23;;;;;;;;;;;17.30;1.00;;;;;;5058405;28;19924;-75
2023/08/07 10:45:49;;;;;;;;;;;17.10;36.90;;;;;;5083000;28;19916;-74
2023/08/07 10:48:17;;;;;;;;;;;17.00;1.00;;;;;;5093878;28;20565;-74
2023/08/07 10:50:57;;;;;;;;;;;16.90;99.90;;;;;;5110809;28;19963;-75
2023/08/07 10:53:35;;;;;;;;;;;17.30;1.00;;;;;;5116538;27;19919;-74
2023/08/07 10:56:03;;;;;;;;;;;17.70;99.90;;;;;;5102963;27;20063;-74
2023/08/07 10:58:30;;;;;;;;;;;17.80;99.90;;;;;;5103414;28;19916;-74
2023/08/07 11:01:14;;;;;;;;;;;17.90;99.90;;;;;;5115543;27;19927;-74
2023/08/07 11:03:42;;;;;;;;;;;18.10;99.90;;;;;;5099660;27;19926;-74
2023/08/07 11:06:09;;;;;;;;;;;17.90;99.90;;;;;;5116315;27;19922;-75
2023/08/07 11:08:34;;;;;;;;;;;17.80;99.90;;;;;;5096019;28;20334;-74
2023/08/07 11:11:04;;;;;;;;;;;17.50;99.90;;;;;;5096969;27;20342;-74
2023/08/07 11:13:29;;;;;;;;;;;17.30;1.00;;;;;;5116574;27;19919;-75
2023/08/07 11:15:55;;;;;;;;;;;17.40;21.70;;;;;;5116551;27;20385;-75
2023/08/07 11:18:22;;;;;;;;;;;17.60;1.00;;;;;;5108043;28;20381;-75
2023/08/07 11:20:48;;;;;;;;;;;17.30;1.00;;;;;;5106649;27;19929;-75
2023/08/07 11:23:13;;;;;;;;;;;17.10;41.00;;;;;;5115937;27;19915;-75
2023/08/07 11:25:39;;;;;;;;;;;17.00;99.90;;;;;;5116194;27;19915;-75
2023/08/07 11:28:04;;;;;;;;;;;16.90;99.90;;;;;;5115661;27;19926;-75
2023/08/07 11:30:31;;;;;;;;;;;16.90;99.90;;;;;;5109734;28;19926;-75
2023/08/07 11:32:56;;;;;;;;;;;16.80;99.90;;;;;;5108561;27;20411;-75
2023/08/07 11:35:22;;;;;;;;;;;16.50;91.70;;;;;;5096780;28;19926;-75
2023/08/07 11:37:48;;;;;;;;;;;16.40;1.00;;;;;;5102870;28;19924;-76
2023/08/07 11:40:13;;;;;;;;;;;16.00;1.00;;;;;;5112200;27;19915;-76
2023/08/07 11:42:40;;;;;;;;;;;15.80;99.90;;;;;;5107135;28;19930;-76
2023/08/07 11:45:06;;;;;;;;;;;15.60;99.90;;;;;;5110192;27;19997;-75
2023/08/07 11:47:32;;;;;;;;;;;15.20;99.90;;;;;;5108951;28;20067;-75
2023/08/07 11:49:58;;;;;;;;;;;15.10;99.90;;;;;;5108000;27;19952;-75
2023/08/07 11:52:24;;;;;;;;;;;15.10;99.90;;;;;;5107176;28;20022;-76
2023/08/07 11:54:52;;;;;;;;;;;15.00;1.00;;;;;;5064476;28;19916;-75
2023/08/07 11:57:20;;;;;;;;;;;14.90;99.90;;;;;;5102840;28;20044;-75
2023/08/07 11:59:54;;;;;;;;;;;15.00;99.90;;;;;;5091817;28;20290;-75
2023/08/07 12:02:26;;;;;;;;;;;15.10;99.90;;;;;;5076779;28;20007;-74
2023/08/07 12:04:56;;;;;;;;;;;15.20;1.00;;;;;;5082011;28;20349;-74
2023/08/07 12:07:26;;;;;;;;;;;15.20;99.90;;;;;;5089121;28;19920;-74
2023/08/07 12:09:52;;;;;;;;;;;15.00;99.90;;;;;;5111669;28;19961;-75
2023/08/07 12:12:19;;;;;;;;;;;14.90;1.00;;;;;;5111502;28;19916;-75
2023/08/07 12:14:44;;;;;;;;;;;14.70;15.90;;;;;;5104691;28;19916;-75
2023/08/07 12:17:10;;;;;;;;;;;14.70;99.90;;;;;;5104185;28;19927;-75
2023/08/07 12:19:37;;;;;;;;;;;14.60;99.90;;;;;;5064334;28;19920;-75
2023/08/07 12:22:06;;;;;;;;;;;14.60;99.90;;;;;;5066096;28;19991;-75
2023/08/07 12:24:31;;;;;;;;;;;14.60;99.90;;;;;;5069430;28;19927;-75
2023/08/07 12:26:57;;;;;;;;;;;14.70;99.90;;;;;;5075764;28;19915;-75
2023/08/07 12:29:24;;;;;;;;;;;14.80;99.90;;;;;;5090942;28;19986;-74
2023/08/07 12:31:50;;;;;;;;;;;15.10;99.90;;;;;;5105793;28;19924;-75
2023/08/07 12:34:16;;;;;;;;;;;15.50;99.90;;;;;;5090767;28;19923;-75
2023/08/07 12:36:42;;;;;;;;;;;16.00;99.90;;;;;;5090792;28;20370;-74
2023/08/07 12:39:07;;;;;;;;;;;16.40;99.90;;;;;;5081879;28;19923;-74
2023/08/07 12:41:33;;;;;;;;;;;16.70;99.90;;;;;;5111440;28;19970;-75
2023/08/07 12:44:01;;;;;;;;;;;16.90;99.90;;;;;;5091262;28;20435;-75
2023/08/07 12:46:26;;;;;;;;;;;17.20;99.90;;;;;;5079119;28;19920;-74
2023/08/07 12:48:52;;;;;;;;;;;17.40;99.90;;;;;;5088271;28;19923;-75
2023/08/07 12:51:17;;;;;;;;;;;17.20;41.10;;;;;;5100209;28;19919;-74
2023/08/07 12:53:45;;;;;;;;;;;17.50;99.90;;;;;;5109125;28;19916;-74
2023/08/07 12:56:10;;;;;;;;;;;17.50;99.90;;;;;;5098707;28;20355;-74
2023/08/07 12:58:36;;;;;;;;;;;17.40;99.90;;;;;;5110864;28;20037;-75
2023/08/07 13:01:01;;;;;;;;;;;17.60;1.00;;;;;;5096685;28;19989;-74
2023/08/07 13:03:27;;;;;;;;;;;17.70;99.90;;;;;;5110926;28;20437;-74
2023/08/07 13:05:52;;;;;;;;;;;18.00;99.90;;;;;;5106922;28;19946;-75
2023/08/07 13:08:18;;;;;;;;;;;18.10;99.90;;;;;;5063953;28;19920;-74
2023/08/07 13:10:44;;;;;;;;;;;17.80;99.90;;;;;;5073481;28;20436;-74
2023/08/07 13:13:09;;;;;;;;;;;17.70;99.90;;;;;;5085799;28;20259;-74
2023/08/07 13:15:35;;;;;;;;;;;17.50;99.90;;;;;;5089703;28;19916;-75
2023/08/07 13:18:00;;;;;;;;;;;17.50;99.90;;;;;;5099158;28;19924;-75
2023/08/07 13:20:27;;;;;;;;;;;17.30;1.00;;;;;;5081763;28;20360;-75
2023/08/07 13:22:52;;;;;;;;;;;17.20;13.20;;;;;;5069781;28;19920;-76
2023/08/07 13:25:18;;;;;;;;;;;17.00;99.90;;;;;;5098580;28;19919;-75
2023/08/07 13:27:43;;;;;;;;;;;17.00;99.90;;;;;;5053460;28;19916;-75
2023/08/07 13:30:09;;;;;;;;;;;16.90;71.30;;;;;;5107717;28;19920;-75
2023/08/07 13:32:35;;;;;;;;;;;16.80;1.00;;;;;;5101049;28;19920;-75
2023/08/07 13:35:02;;;;;;;;;;;16.60;99.90;;;;;;5091748;28;19977;-75
2023/08/07 13:37:28;;;;;;;;;;;16.60;99.90;;;;;;5082140;28;19920;-75
2023/08/07 13:39:54;;;;;;;;;;;16.50;1.00;;;;;;5097586;28;19969;-75
2023/08/07 13:42:19;;;;;;;;;;;16.60;28.30;;;;;;5093168;28;19973;-75
2023/08/07 13:44:45;;;;;;;;;;;16.70;1.00;;;;;;5098494;28;19927;-75
2023/08/07 13:47:11;;;;;;;;;;;16.90;99.90;;;;;;5107978;28;19919;-74
2023/08/07 13:49:37;;;;;;;;;;;16.90;1.00;;;;;;5086422;28;19923;-75
2023/08/07 13:52:03;;;;;;;;;;;17.00;99.90;;;;;;5090964;28;20394;-75
2023/08/07 13:54:29;;;;;;;;;;;17.40;99.90;;;;;;5100987;28;19920;-74
2023/08/07 13:56:54;;;;;;;;;;;17.50;99.90;;;;;;5069184;28;20229;-75
2023/08/07 13:59:20;;;;;;;;;;;17.40;1.00;;;;;;5095243;28;20260;-75
2023/08/07 14:01:46;;;;;;;;;;;17.50;6.50;;;;;;5098077;28;20007;-74
2023/08/07 14:04:13;;;;;;;;;;;17.70;99.90;;;;;;5093062;28;20358;-74
2023/08/07 14:06:39;;;;;;;;;;;17.80;15.00;;;;;;5099461;28;19926;-75
2023/08/07 14:09:04;;;;;;;;;;;17.60;69.20;;;;;;5077146;28;19920;-75
2023/08/07 14:11:31;;;;;;;;;;;17.90;99.90;;;;;;5093586;28;20349;-75
2023/08/07 14:13:57;;;;;;;;;;;18.00;99.90;;;;;;5097609;28;19916;-74